KTLH/TLH METAR and TAF weather

Enter ICAO airport designator
Station Type Date Time Source
KTLH METAR 2019/04/25 07:53 UTC NOAA

KTLH 250753Z AUTO 00000KT 10SM CLR 12/12 A2995 RMK AO2 SLP142 T01220117


Station Type Date Time Source
KTLH Decoded METAR 2019/04/25 07:53 UTC NOAA

TALLAHASSEE REGIONAL AIRPORT , FL, United States (KTLH) 30-24N 84-21W 16M
Apr 25, 2019 - 03:53 AM EDT / 2019.04.25 0753 UTC
Wind: Calm:0
Visibility: 10 mile(s):0
Sky conditions: clear
Temperature: 54.0 F (12.2 C)
Dew Point: 53.1 F (11.7 C)
Relative Humidity: 96%
Pressure (altimeter): 29.95 in. Hg (1014 hPa)
ob: KTLH 250753Z AUTO 00000KT 10SM CLR 12/12 A2995 RMK AO2 SLP142 T01220117
cycle: 8

Station Type Date Time Source
KTLH TAF 2019/04/25 06:22 UTC NOAA

TAF KTLH 250520Z 2506/2606 00000KT P6SM BKN250
FM251500 19010KT P6SM SCT050 BKN250
FM260400 20010G18KT 5SM TSRA BKN025CB OVC050

Example: see airport list